sensor_id;sensor_type;location;lat;lon;timestamp;pressure;altitude;pressure_sealevel;temperature;humidity
79729;BME280;69218;52.132;5.418;2024-02-16T00:00:08;101092.94;;;10.55;100.00
79729;BME280;69218;52.132;5.418;2024-02-16T00:02:40;101072.19;;;10.52;100.00
79729;BME280;69218;52.132;5.418;2024-02-16T00:05:10;101074.13;;;10.50;100.00
79729;BME280;69218;52.132;5.418;2024-02-16T00:07:38;101084.59;;;10.50;100.00
79729;BME280;69218;52.132;5.418;2024-02-16T00:10:06;101073.38;;;10.48;100.00
79729;BME280;69218;52.132;5.418;2024-02-16T00:12:33;101079.56;;;10.47;100.00
79729;BME280;69218;52.132;5.418;2024-02-16T00:15:01;101073.63;;;10.45;100.00
79729;BME280;69218;52.132;5.418;2024-02-16T00:17:28;101076.44;;;10.42;100.00
79729;BME280;69218;52.132;5.418;2024-02-16T00:19:55;101075.63;;;10.41;100.00
79729;BME280;69218;52.132;5.418;2024-02-16T00:22:22;101076.56;;;10.40;100.00
79729;BME280;69218;52.132;5.418;2024-02-16T00:24:49;101074.06;;;10.39;100.00
79729;BME280;69218;52.132;5.418;2024-02-16T00:27:16;101073.38;;;10.37;100.00
79729;BME280;69218;52.132;5.418;2024-02-16T00:29:43;101068.22;;;10.35;100.00
79729;BME280;69218;52.132;5.418;2024-02-16T00:32:10;101072.63;;;10.35;100.00
79729;BME280;69218;52.132;5.418;2024-02-16T00:34:36;101066.53;;;10.34;100.00
79729;BME280;69218;52.132;5.418;2024-02-16T00:37:05;101070.94;;;10.34;100.00
79729;BME280;69218;52.132;5.418;2024-02-16T00:39:36;101068.56;;;10.31;100.00
79729;BME280;69218;52.132;5.418;2024-02-16T00:42:03;101065.13;;;10.30;100.00
79729;BME280;69218;52.132;5.418;2024-02-16T00:44:30;101063.53;;;10.28;100.00
79729;BME280;69218;52.132;5.418;2024-02-16T00:46:56;101066.16;;;10.28;100.00
79729;BME280;69218;52.132;5.418;2024-02-16T00:49:24;101067.84;;;10.29;100.00
79729;BME280;69218;52.132;5.418;2024-02-16T00:51:50;101062.59;;;10.29;100.00
79729;BME280;69218;52.132;5.418;2024-02-16T00:54:17;101065.34;;;10.27;100.00
79729;BME280;69218;52.132;5.418;2024-02-16T00:56:44;101062.84;;;10.26;100.00
79729;BME280;69218;52.132;5.418;2024-02-16T00:59:10;101063.91;;;10.23;100.00
79729;BME280;69218;52.132;5.418;2024-02-16T01:01:37;101057.84;;;10.23;100.00
79729;BME280;69218;52.132;5.418;2024-02-16T01:04:04;101049.19;;;10.21;100.00
79729;BME280;69218;52.132;5.418;2024-02-16T01:06:30;101060.63;;;10.19;100.00
79729;BME280;69218;52.132;5.418;2024-02-16T01:08:57;101051.22;;;10.17;100.00
79729;BME280;69218;52.132;5.418;2024-02-16T01:11:23;101055.75;;;10.15;100.00
79729;BME280;69218;52.132;5.418;2024-02-16T01:13:50;101048.00;;;10.13;100.00
79729;BME280;69218;52.132;5.418;2024-02-16T01:16:17;101043.81;;;10.11;100.00
79729;BME280;69218;52.132;5.418;2024-02-16T01:18:44;101042.16;;;10.10;100.00
79729;BME280;69218;52.132;5.418;2024-02-16T01:21:11;101035.25;;;10.09;100.00
79729;BME280;69218;52.132;5.418;2024-02-16T01:23:38;101038.84;;;10.08;100.00
79729;BME280;69218;52.132;5.418;2024-02-16T01:26:04;101032.72;;;10.07;100.00
79729;BME280;69218;52.132;5.418;2024-02-16T01:28:30;101030.09;;;10.07;100.00
79729;BME280;69218;52.132;5.418;2024-02-16T01:30:57;101035.34;;;10.07;100.00
79729;BME280;69218;52.132;5.418;2024-02-16T01:33:23;101030.97;;;10.08;100.00
79729;BME280;69218;52.132;5.418;2024-02-16T01:35:52;101030.03;;;10.09;100.00
79729;BME280;69218;52.132;5.418;2024-02-16T01:38:18;101024.88;;;10.07;100.00
79729;BME280;69218;52.132;5.418;2024-02-16T01:40:44;101020.59;;;10.06;100.00
79729;BME280;69218;52.132;5.418;2024-02-16T01:43:11;101020.72;;;10.05;100.00
79729;BME280;69218;52.132;5.418;2024-02-16T01:45:37;101022.50;;;10.04;100.00
79729;BME280;69218;52.132;5.418;2024-02-16T01:48:04;101024.41;;;10.02;100.00
79729;BME280;69218;52.132;5.418;2024-02-16T01:50:31;101028.91;;;10.00;100.00
79729;BME280;69218;52.132;5.418;2024-02-16T01:53:03;101023.91;;;9.97;100.00
79729;BME280;69218;52.132;5.418;2024-02-16T01:55:30;101031.03;;;9.95;100.00
79729;BME280;69218;52.132;5.418;2024-02-16T01:57:58;101022.44;;;9.93;100.00
79729;BME280;69218;52.132;5.418;2024-02-16T02:00:24;101026.00;;;9.92;100.00
79729;BME280;69218;52.132;5.418;2024-02-16T02:02:51;101022.56;;;9.91;100.00
79729;BME280;69218;52.132;5.418;2024-02-16T02:05:18;101012.22;;;9.90;100.00
79729;BME280;69218;52.132;5.418;2024-02-16T02:07:45;101019.13;;;9.91;100.00
79729;BME280;69218;52.132;5.418;2024-02-16T02:10:12;101002.56;;;9.90;100.00
79729;BME280;69218;52.132;5.418;2024-02-16T02:12:39;101000.78;;;9.91;100.00
79729;BME280;69218;52.132;5.418;2024-02-16T02:15:07;101005.91;;;9.93;100.00
79729;BME280;69218;52.132;5.418;2024-02-16T02:17:34;101004.03;;;9.95;100.00
79729;BME280;69218;52.132;5.418;2024-02-16T02:20:01;101005.69;;;9.96;100.00
79729;BME280;69218;52.132;5.418;2024-02-16T02:22:28;101007.47;;;9.95;100.00
79729;BME280;69218;52.132;5.418;2024-02-16T02:24:55;101002.13;;;9.97;100.00
79729;BME280;69218;52.132;5.418;2024-02-16T02:27:21;101020.31;;;9.98;100.00
79729;BME280;69218;52.132;5.418;2024-02-16T02:29:48;101015.22;;;9.97;100.00
79729;BME280;69218;52.132;5.418;2024-02-16T02:32:15;101015.22;;;9.97;100.00
79729;BME280;69218;52.132;5.418;2024-02-16T02:34:41;101012.47;;;9.98;100.00
79729;BME280;69218;52.132;5.418;2024-02-16T02:37:08;101010.69;;;9.99;100.00
79729;BME280;69218;52.132;5.418;2024-02-16T02:39:35;101006.28;;;9.99;100.00
79729;BME280;69218;52.132;5.418;2024-02-16T02:42:02;100999.38;;;9.98;100.00
79729;BME280;69218;52.132;5.418;2024-02-16T02:44:29;100992.34;;;9.99;100.00
79729;BME280;69218;52.132;5.418;2024-02-16T02:46:57;100984.38;;;10.00;100.00
79729;BME280;69218;52.132;5.418;2024-02-16T02:49:24;100991.19;;;10.03;100.00
79729;BME280;69218;52.132;5.418;2024-02-16T02:51:50;100981.53;;;10.03;100.00
79729;BME280;69218;52.132;5.418;2024-02-16T02:54:17;100985.00;;;10.04;100.00
79729;BME280;69218;52.132;5.418;2024-02-16T02:56:43;100978.94;;;10.03;100.00
79729;BME280;69218;52.132;5.418;2024-02-16T02:59:10;100972.84;;;10.03;100.00
79729;BME280;69218;52.132;5.418;2024-02-16T03:01:37;100972.84;;;10.03;100.00
79729;BME280;69218;52.132;5.418;2024-02-16T03:04:04;100964.16;;;10.02;100.00
79729;BME280;69218;52.132;5.418;2024-02-16T03:06:30;100971.19;;;10.02;100.00
79729;BME280;69218;52.132;5.418;2024-02-16T03:08:57;100972.03;;;10.02;100.00
79729;BME280;69218;52.132;5.418;2024-02-16T03:11:23;100971.06;;;10.03;100.00
79729;BME280;69218;52.132;5.418;2024-02-16T03:13:50;100967.84;;;10.00;100.00
79729;BME280;69218;52.132;5.418;2024-02-16T03:16:17;100964.50;;;9.98;100.00
79729;BME280;69218;52.132;5.418;2024-02-16T03:18:43;100968.78;;;9.99;100.00
79729;BME280;69218;52.132;5.418;2024-02-16T03:21:13;100972.47;;;9.96;100.00
79729;BME280;69218;52.132;5.418;2024-02-16T03:23:43;100968.28;;;9.94;100.00
79729;BME280;69218;52.132;5.418;2024-02-16T03:26:14;100966.16;;;9.87;100.00
79729;BME280;69218;52.132;5.418;2024-02-16T03:28:42;100967.06;;;9.86;100.00
79729;BME280;69218;52.132;5.418;2024-02-16T03:31:21;100971.72;;;9.83;100.00
79729;BME280;69218;52.132;5.418;2024-02-16T03:33:49;100965.78;;;9.81;100.00
79729;BME280;69218;52.132;5.418;2024-02-16T03:36:19;100967.66;;;9.79;100.00
79729;BME280;69218;52.132;5.418;2024-02-16T03:38:47;100969.56;;;9.77;100.00
79729;BME280;69218;52.132;5.418;2024-02-16T03:41:21;100975.88;;;9.74;100.00
79729;BME280;69218;52.132;5.418;2024-02-16T03:43:48;100965.50;;;9.73;100.00
79729;BME280;69218;52.132;5.418;2024-02-16T03:46:14;100969.16;;;9.70;100.00
79729;BME280;69218;52.132;5.418;2024-02-16T03:48:41;100969.28;;;9.69;100.00
79729;BME280;69218;52.132;5.418;2024-02-16T03:51:08;100960.72;;;9.67;100.00
79729;BME280;69218;52.132;5.418;2024-02-16T03:53:35;100968.66;;;9.65;100.00
79729;BME280;69218;52.132;5.418;2024-02-16T03:56:01;100965.22;;;9.64;100.00
79729;BME280;69218;52.132;5.418;2024-02-16T03:58:28;100960.09;;;9.63;100.00
79729;BME280;69218;52.132;5.418;2024-02-16T04:00:54;100962.84;;;9.61;100.00
79729;BME280;69218;52.132;5.418;2024-02-16T04:03:21;100967.44;;;9.58;100.00
79729;BME280;69218;52.132;5.418;2024-02-16T04:05:48;100962.44;;;9.55;100.00
79729;BME280;69218;52.132;5.418;2024-02-16T04:08:14;100968.53;;;9.55;100.00
79729;BME280;69218;52.132;5.418;2024-02-16T04:10:41;100968.63;;;9.54;100.00
79729;BME280;69218;52.132;5.418;2024-02-16T04:13:07;100974.59;;;9.56;100.00
79729;BME280;69218;52.132;5.418;2024-02-16T04:15:34;100976.16;;;9.58;100.00
79729;BME280;69218;52.132;5.418;2024-02-16T04:18:01;100978.78;;;9.58;100.00
79729;BME280;69218;52.132;5.418;2024-02-16T04:20:28;100976.88;;;9.60;100.00
79729;BME280;69218;52.132;5.418;2024-02-16T04:22:54;100975.81;;;9.63;100.00
79729;BME280;69218;52.132;5.418;2024-02-16T04:25:21;100968.78;;;9.63;100.00
79729;BME280;69218;52.132;5.418;2024-02-16T04:27:47;100964.63;;;9.61;100.00
79729;BME280;69218;52.132;5.418;2024-02-16T04:30:13;100969.03;;;9.60;100.00
79729;BME280;69218;52.132;5.418;2024-02-16T04:32:40;100968.31;;;9.58;100.00
79729;BME280;69218;52.132;5.418;2024-02-16T04:35:07;100965.69;;;9.58;100.00
79729;BME280;69218;52.132;5.418;2024-02-16T04:37:38;100964.00;;;9.57;100.00
79729;BME280;69218;52.132;5.418;2024-02-16T04:40:06;100959.84;;;9.55;100.00
79729;BME280;69218;52.132;5.418;2024-02-16T04:42:33;100968.53;;;9.55;100.00
79729;BME280;69218;52.132;5.418;2024-02-16T04:44:59;100972.91;;;9.55;100.00
79729;BME280;69218;52.132;5.418;2024-02-16T04:47:31;100977.19;;;9.56;100.00
79729;BME280;69218;52.132;5.418;2024-02-16T04:49:58;100974.72;;;9.54;100.00
79729;BME280;69218;52.132;5.418;2024-02-16T04:52:24;100969.34;;;9.56;100.00
79729;BME280;69218;52.132;5.418;2024-02-16T04:54:55;100973.75;;;9.55;100.00
79729;BME280;69218;52.132;5.418;2024-02-16T04:57:22;100970.19;;;9.56;100.00
79729;BME280;69218;52.132;5.418;2024-02-16T04:59:48;100975.41;;;9.56;100.00
79729;BME280;69218;52.132;5.418;2024-02-16T05:02:15;100970.19;;;9.56;100.00
79729;BME280;69218;52.132;5.418;2024-02-16T05:04:41;100971.84;;;9.57;100.00
79729;BME280;69218;52.132;5.418;2024-02-16T05:07:08;100964.84;;;9.58;100.00
79729;BME280;69218;52.132;5.418;2024-02-16T05:09:36;100968.31;;;9.58;100.00
79729;BME280;69218;52.132;5.418;2024-02-16T05:12:02;100974.47;;;9.57;100.00
79729;BME280;69218;52.132;5.418;2024-02-16T05:14:29;100972.81;;;9.56;100.00
79729;BME280;69218;52.132;5.418;2024-02-16T05:16:55;100975.41;;;9.56;100.00
79729;BME280;69218;52.132;5.418;2024-02-16T05:19:25;100969.22;;;9.57;100.00
79729;BME280;69218;52.132;5.418;2024-02-16T05:21:52;100964.94;;;9.56;100.00
79729;BME280;69218;52.132;5.418;2024-02-16T05:24:18;100968.53;;;9.55;100.00
79729;BME280;69218;52.132;5.418;2024-02-16T05:26:45;100965.91;;;9.55;100.00
79729;BME280;69218;52.132;5.418;2024-02-16T05:29:11;100960.66;;;9.55;100.00
79729;BME280;69218;52.132;5.418;2024-02-16T05:31:38;100955.44;;;9.55;100.00
79729;BME280;69218;52.132;5.418;2024-02-16T05:34:04;100959.72;;;9.56;100.00
79729;BME280;69218;52.132;5.418;2024-02-16T05:36:32;100963.16;;;9.57;100.00
79729;BME280;69218;52.132;5.418;2024-02-16T05:39:02;100955.22;;;9.58;100.00
79729;BME280;69218;52.132;5.418;2024-02-16T05:41:46;100944.75;;;9.58;100.00
79729;BME280;69218;52.132;5.418;2024-02-16T05:44:13;100956.78;;;9.61;100.00
79729;BME280;69218;52.132;5.418;2024-02-16T05:46:40;100962.84;;;9.61;100.00
79729;BME280;69218;52.132;5.418;2024-02-16T05:49:07;100958.31;;;9.63;100.00
79729;BME280;69218;52.132;5.418;2024-02-16T05:51:37;100950.34;;;9.65;100.00
79729;BME280;69218;52.132;5.418;2024-02-16T05:54:05;100961.75;;;9.64;100.00
79729;BME280;69218;52.132;5.418;2024-02-16T05:56:34;100950.47;;;9.63;100.00
79729;BME280;69218;52.132;5.418;2024-02-16T05:59:03;100957.38;;;9.64;100.00
79729;BME280;69218;52.132;5.418;2024-02-16T06:01:29;100967.00;;;9.64;100.00
79729;BME280;69218;52.132;5.418;2024-02-16T06:03:56;100966.16;;;9.63;100.00
79729;BME280;69218;52.132;5.418;2024-02-16T06:06:23;100959.16;;;9.64;100.00
79729;BME280;69218;52.132;5.418;2024-02-16T06:08:49;100968.78;;;9.63;100.00
79729;BME280;69218;52.132;5.418;2024-02-16T06:11:16;100962.59;;;9.64;100.00
79729;BME280;69218;52.132;5.418;2024-02-16T06:13:46;100960.81;;;9.65;100.00
79729;BME280;69218;52.132;5.418;2024-02-16T06:16:12;100955.81;;;9.62;100.00
79729;BME280;69218;52.132;5.418;2024-02-16T06:18:39;100960.94;;;9.63;100.00
79729;BME280;69218;52.132;5.418;2024-02-16T06:21:05;100975.81;;;9.63;100.00
79729;BME280;69218;52.132;5.418;2024-02-16T06:23:32;100983.66;;;9.63;100.00
79729;BME280;69218;52.132;5.418;2024-02-16T06:25:59;100985.31;;;9.64;100.00
79729;BME280;69218;52.132;5.418;2024-02-16T06:28:25;100990.56;;;9.64;100.00
79729;BME280;69218;52.132;5.418;2024-02-16T06:30:52;100994.97;;;9.63;100.00
79729;BME280;69218;52.132;5.418;2024-02-16T06:33:18;100993.81;;;9.68;100.00
79729;BME280;69218;52.132;5.418;2024-02-16T06:35:45;101000.69;;;9.69;100.00
79729;BME280;69218;52.132;5.418;2024-02-16T06:38:13;101003.09;;;9.72;100.00
79729;BME280;69218;52.132;5.418;2024-02-16T06:40:39;101002.16;;;9.73;100.00
79729;BME280;69218;52.132;5.418;2024-02-16T06:43:06;101001.22;;;9.74;100.00
79729;BME280;69218;52.132;5.418;2024-02-16T06:45:32;101015.00;;;9.76;100.00
79729;BME280;69218;52.132;5.418;2024-02-16T06:47:59;101014.19;;;9.75;100.00
79729;BME280;69218;52.132;5.418;2024-02-16T06:50:26;101018.47;;;9.76;100.00
79729;BME280;69218;52.132;5.418;2024-02-16T06:52:53;101021.91;;;9.77;100.00
79729;BME280;69218;52.132;5.418;2024-02-16T06:55:21;101016.56;;;9.78;100.00
79729;BME280;69218;52.132;5.418;2024-02-16T06:57:48;101025.03;;;9.82;100.00
79729;BME280;69218;52.132;5.418;2024-02-16T07:00:15;101028.50;;;9.82;100.00
79729;BME280;69218;52.132;5.418;2024-02-16T07:02:42;101023.97;;;9.84;100.00
79729;BME280;69218;52.132;5.418;2024-02-16T07:05:09;101030.03;;;9.85;100.00
79729;BME280;69218;52.132;5.418;2024-02-16T07:07:35;101024.69;;;9.86;100.00
79729;BME280;69218;52.132;5.418;2024-02-16T07:10:02;101035.16;;;9.86;100.00
79729;BME280;69218;52.132;5.418;2024-02-16T07:12:29;101029.91;;;9.86;100.00
79729;BME280;69218;52.132;5.418;2024-02-16T07:14:55;101035.06;;;9.88;100.00
79729;BME280;69218;52.132;5.418;2024-02-16T07:17:22;101046.25;;;9.90;100.00
79729;BME280;69218;52.132;5.418;2024-02-16T07:19:48;101043.63;;;9.90;100.00
79729;BME280;69218;52.132;5.418;2024-02-16T07:22:15;101054.81;;;9.92;100.00
79729;BME280;69218;52.132;5.418;2024-02-16T07:24:42;101055.56;;;9.94;100.00
79729;BME280;69218;52.132;5.418;2024-02-16T07:27:08;101053.78;;;9.95;100.00
79729;BME280;69218;52.132;5.418;2024-02-16T07:29:37;101047.59;;;9.96;100.00
79729;BME280;69218;52.132;5.418;2024-02-16T07:32:05;101051.75;;;9.98;100.00
79729;BME280;69218;52.132;5.418;2024-02-16T07:34:32;101054.25;;;10.00;100.00
79729;BME280;69218;52.132;5.418;2024-02-16T07:36:58;101054.16;;;10.01;100.00
79729;BME280;69218;52.132;5.418;2024-02-16T07:39:25;101060.94;;;10.04;100.00
79729;BME280;69218;52.132;5.418;2024-02-16T07:41:52;101060.00;;;10.05;100.00
79729;BME280;69218;52.132;5.418;2024-02-16T07:44:18;101061.66;;;10.06;100.00
79729;BME280;69218;52.132;5.418;2024-02-16T07:46:45;101063.31;;;10.07;100.00
79729;BME280;69218;52.132;5.418;2024-02-16T07:49:12;101070.03;;;10.11;100.00
79729;BME280;69218;52.132;5.418;2024-02-16T07:51:39;101076.81;;;10.13;100.00
79729;BME280;69218;52.132;5.418;2024-02-16T07:54:07;101073.16;;;10.16;100.00
79729;BME280;69218;52.132;5.418;2024-02-16T07:56:34;101074.69;;;10.18;100.00
79729;BME280;69218;52.132;5.418;2024-02-16T07:59:01;101084.94;;;10.22;100.00
79729;BME280;69218;52.132;5.418;2024-02-16T08:01:27;101085.69;;;10.24;100.00
79729;BME280;69218;52.132;5.418;2024-02-16T08:03:54;101091.53;;;10.27;100.00
79729;BME280;69218;52.132;5.418;2024-02-16T08:06:25;101091.41;;;10.29;100.00
79729;BME280;69218;52.132;5.418;2024-02-16T08:08:52;101092.75;;;10.34;100.00
79729;BME280;69218;52.132;5.418;2024-02-16T08:11:19;101101.81;;;10.41;100.00
79729;BME280;69218;52.132;5.418;2024-02-16T08:13:46;101098.75;;;10.48;100.00
79729;BME280;69218;52.132;5.418;2024-02-16T08:16:13;101102.56;;;10.55;100.00
79729;BME280;69218;52.132;5.418;2024-02-16T08:18:39;101100.34;;;10.61;100.00
79729;BME280;69218;52.132;5.418;2024-02-16T08:21:06;101108.56;;;10.68;100.00
79729;BME280;69218;52.132;5.418;2024-02-16T08:23:33;101102.88;;;10.74;100.00
79729;BME280;69218;52.132;5.418;2024-02-16T08:26:00;101107.53;;;10.82;100.00
79729;BME280;69218;52.132;5.418;2024-02-16T08:28:27;101110.50;;;10.88;100.00
79729;BME280;69218;52.132;5.418;2024-02-16T08:30:53;101108.97;;;10.97;100.00
79729;BME280;69218;52.132;5.418;2024-02-16T08:33:20;101111.00;;;11.05;100.00
79729;BME280;69218;52.132;5.418;2024-02-16T08:35:47;101117.56;;;11.10;100.00
79729;BME280;69218;52.132;5.418;2024-02-16T08:38:13;101121.38;;;11.17;100.00
79729;BME280;69218;52.132;5.418;2024-02-16T08:40:40;101120.19;;;11.21;100.00
79729;BME280;69218;52.132;5.418;2024-02-16T08:43:06;101121.38;;;11.28;100.00
79729;BME280;69218;52.132;5.418;2024-02-16T08:45:36;101124.13;;;11.38;100.00
79729;BME280;69218;52.132;5.418;2024-02-16T08:48:03;101129.59;;;11.46;100.00
79729;BME280;69218;52.132;5.418;2024-02-16T08:50:31;101129.25;;;11.51;100.00
79729;BME280;69218;52.132;5.418;2024-02-16T08:52:57;101124.56;;;11.54;100.00
79729;BME280;69218;52.132;5.418;2024-02-16T08:55:24;101126.00;;;11.59;100.00
79729;BME280;69218;52.132;5.418;2024-02-16T08:57:50;101123.72;;;11.65;100.00
79729;BME280;69218;52.132;5.418;2024-02-16T09:00:17;101135.41;;;11.72;100.00
79729;BME280;69218;52.132;5.418;2024-02-16T09:02:44;101145.09;;;11.83;100.00
79729;BME280;69218;52.132;5.418;2024-02-16T09:05:11;101153.31;;;11.90;100.00
79729;BME280;69218;52.132;5.418;2024-02-16T09:07:38;101150.19;;;11.96;100.00
79729;BME280;69218;52.132;5.418;2024-02-16T09:10:05;101146.50;;;11.98;100.00
79729;BME280;69218;52.132;5.418;2024-02-16T09:12:31;101156.16;;;11.98;100.00
79729;BME280;69218;52.132;5.418;2024-02-16T09:14:58;101162.38;;;11.97;100.00
79729;BME280;69218;52.132;5.418;2024-02-16T09:17:25;101162.50;;;11.95;100.00
79729;BME280;69218;52.132;5.418;2024-02-16T09:19:53;101170.63;;;11.92;100.00
79729;BME280;69218;52.132;5.418;2024-02-16T09:22:19;101174.44;;;11.88;100.00
79729;BME280;69218;52.132;5.418;2024-02-16T09:24:45;101181.97;;;11.81;100.00
79729;BME280;69218;52.132;5.418;2024-02-16T09:27:13;101191.75;;;11.79;100.00
79729;BME280;69218;52.132;5.418;2024-02-16T09:29:40;101193.78;;;11.76;100.00
79729;BME280;69218;52.132;5.418;2024-02-16T09:32:06;101196.53;;;11.74;100.00
79729;BME280;69218;52.132;5.418;2024-02-16T09:34:33;101205.38;;;11.73;100.00
79729;BME280;69218;52.132;5.418;2024-02-16T09:37:00;101209.78;;;11.73;100.00
79729;BME280;69218;52.132;5.418;2024-02-16T09:39:26;101214.91;;;11.74;100.00
79729;BME280;69218;52.132;5.418;2024-02-16T09:41:54;101217.31;;;11.77;100.00
79729;BME280;69218;52.132;5.418;2024-02-16T09:44:22;101223.06;;;11.82;100.00
79729;BME280;69218;52.132;5.418;2024-02-16T09:46:48;101224.50;;;11.87;100.00
79729;BME280;69218;52.132;5.418;2024-02-16T09:49:18;101227.59;;;11.92;100.00
79729;BME280;69218;52.132;5.418;2024-02-16T09:51:59;101234.13;;;11.97;100.00
79729;BME280;69218;52.132;5.418;2024-02-16T09:54:32;101248.59;;;12.03;100.00
79729;BME280;69218;52.132;5.418;2024-02-16T09:57:00;101249.06;;;12.08;100.00
79729;BME280;69218;52.132;5.418;2024-02-16T09:59:27;101249.53;;;12.13;100.00
79729;BME280;69218;52.132;5.418;2024-02-16T10:02:11;101265.31;;;12.13;100.00
79729;BME280;69218;52.132;5.418;2024-02-16T10:04:38;101258.63;;;12.09;100.00
79729;BME280;69218;52.132;5.418;2024-02-16T10:07:04;101251.09;;;12.04;100.00
79729;BME280;69218;52.132;5.418;2024-02-16T10:09:39;101255.06;;;11.99;100.00
79729;BME280;69218;52.132;5.418;2024-02-16T10:12:08;101266.28;;;12.01;100.00
79729;BME280;69218;52.132;5.418;2024-02-16T10:14:34;101272.72;;;11.97;100.00
79729;BME280;69218;52.132;5.418;2024-02-16T10:17:05;101272.00;;;11.95;100.00
79729;BME280;69218;52.132;5.418;2024-02-16T10:19:32;101287.06;;;11.93;100.00
79729;BME280;69218;52.132;5.418;2024-02-16T10:22:08;101282.88;;;11.90;100.00
79729;BME280;69218;52.132;5.418;2024-02-16T10:24:35;101287.53;;;11.87;100.00
79729;BME280;69218;52.132;5.418;2024-02-16T10:27:02;101294.59;;;11.86;100.00
79729;BME280;69218;52.132;5.418;2024-02-16T10:29:29;101292.91;;;11.85;100.00
79729;BME280;69218;52.132;5.418;2024-02-16T10:31:56;101300.81;;;11.85;100.00
79729;BME280;69218;52.132;5.418;2024-02-16T10:34:24;101304.25;;;11.86;100.00
79729;BME280;69218;52.132;5.418;2024-02-16T10:36:51;101312.97;;;11.86;100.00
79729;BME280;69218;52.132;5.418;2024-02-16T10:39:18;101322.66;;;11.86;100.00
79729;BME280;69218;52.132;5.418;2024-02-16T10:41:46;101328.13;;;11.82;100.00
79729;BME280;69218;52.132;5.418;2024-02-16T10:44:13;101330.75;;;11.82;100.00
79729;BME280;69218;52.132;5.418;2024-02-16T10:46:39;101337.91;;;11.80;100.00
79729;BME280;69218;52.132;5.418;2024-02-16T10:49:06;101352.81;;;11.80;100.00
79729;BME280;69218;52.132;5.418;2024-02-16T10:51:46;101352.94;;;11.78;100.00
79729;BME280;69218;52.132;5.418;2024-02-16T10:54:19;101360.06;;;11.76;100.00
79729;BME280;69218;52.132;5.418;2024-02-16T10:56:48;101348.97;;;11.73;100.00
79729;BME280;69218;52.132;5.418;2024-02-16T10:59:16;101367.13;;;11.76;100.00
79729;BME280;69218;52.132;5.418;2024-02-16T11:01:44;101384.78;;;11.74;100.00
79729;BME280;69218;52.132;5.418;2024-02-16T11:04:17;101373.78;;;11.69;100.00
79729;BME280;69218;52.132;5.418;2024-02-16T11:06:48;101376.41;;;11.69;100.00
79729;BME280;69218;52.132;5.418;2024-02-16T11:09:27;101377.25;;;11.69;100.00
79729;BME280;69218;52.132;5.418;2024-02-16T11:11:58;101383.25;;;11.71;100.00
79729;BME280;69218;52.132;5.418;2024-02-16T11:14:37;101377.16;;;11.71;100.00
79729;BME280;69218;52.132;5.418;2024-02-16T11:17:11;101382.28;;;11.72;100.00
79729;BME280;69218;52.132;5.418;2024-02-16T11:19:45;101391.72;;;11.75;100.00
79729;BME280;69218;52.132;5.418;2024-02-16T11:22:19;101393.28;;;11.77;100.00
79729;BME280;69218;52.132;5.418;2024-02-16T11:24:47;101381.63;;;11.81;100.00
79729;BME280;69218;52.132;5.418;2024-02-16T11:27:15;101384.03;;;11.85;100.00
79729;BME280;69218;52.132;5.418;2024-02-16T11:29:46;101389.28;;;11.85;100.00
79729;BME280;69218;52.132;5.418;2024-02-16T11:32:13;101391.06;;;11.84;100.00
79729;BME280;69218;52.132;5.418;2024-02-16T11:34:39;101410.16;;;11.86;100.00
79729;BME280;69218;52.132;5.418;2024-02-16T11:37:06;101408.50;;;11.85;100.00
79729;BME280;69218;52.132;5.418;2024-02-16T11:39:33;101414.47;;;11.87;100.00
79729;BME280;69218;52.132;5.418;2024-02-16T11:42:09;101413.63;;;11.87;100.00
79729;BME280;69218;52.132;5.418;2024-02-16T11:44:38;101411.13;;;11.85;100.00
79729;BME280;69218;52.132;5.418;2024-02-16T11:47:09;101415.56;;;11.85;100.00
79729;BME280;69218;52.132;5.418;2024-02-16T11:49:40;101413.13;;;11.81;100.00
79729;BME280;69218;52.132;5.418;2024-02-16T11:52:07;101416.47;;;11.83;100.00
79729;BME280;69218;52.132;5.418;2024-02-16T11:54:34;101422.59;;;11.84;100.00
79729;BME280;69218;52.132;5.418;2024-02-16T11:57:04;101422.59;;;11.84;100.00
79729;BME280;69218;52.132;5.418;2024-02-16T11:59:31;101451.59;;;11.82;100.00
79729;BME280;69218;52.132;5.418;2024-02-16T12:01:58;101456.00;;;11.82;100.00
79729;BME280;69218;52.132;5.418;2024-02-16T12:04:28;101458.75;;;11.80;100.00
79729;BME280;69218;52.132;5.418;2024-02-16T12:09:25;101467.47;;;11.81;100.00
79729;BME280;69218;52.132;5.418;2024-02-16T12:11:53;101480.59;;;11.81;100.00
79729;BME280;69218;52.132;5.418;2024-02-16T12:14:21;101491.09;;;11.81;100.00
79729;BME280;69218;52.132;5.418;2024-02-16T12:16:49;101479.75;;;11.80;100.00
79729;BME280;69218;52.132;5.418;2024-02-16T12:19:19;101477.84;;;11.82;100.00
79729;BME280;69218;52.132;5.418;2024-02-16T12:21:57;101485.66;;;11.84;100.00
79729;BME280;69218;52.132;5.418;2024-02-16T12:24:24;101490.78;;;11.86;100.00
79729;BME280;69218;52.132;5.418;2024-02-16T12:26:51;101489.09;;;11.85;100.00
79729;BME280;69218;52.132;5.418;2024-02-16T12:29:18;101497.19;;;11.81;100.00
79729;BME280;69218;52.132;5.418;2024-02-16T12:31:45;101500.88;;;11.79;100.00
79729;BME280;69218;52.132;5.418;2024-02-16T12:34:14;101508.66;;;11.80;100.00
79729;BME280;69218;52.132;5.418;2024-02-16T12:36:42;101515.78;;;11.78;100.00
79729;BME280;69218;52.132;5.418;2024-02-16T12:39:13;101513.91;;;11.80;100.00
79729;BME280;69218;52.132;5.418;2024-02-16T12:41:42;101524.50;;;11.79;100.00
79729;BME280;69218;52.132;5.418;2024-02-16T12:44:10;101527.25;;;11.77;100.00
79729;BME280;69218;52.132;5.418;2024-02-16T12:46:37;101524.63;;;11.77;100.00